الصفحة الرئيسية
METAR-TAF:

METAR-TAF

مطار :

Phillip Goldston

Belize City, بليز

دائرة عرض: 17-32N, خط طول: 088-18W, ارتفاع: 5 متر

مراقبة الطقس الحالي

تاريخ ووقت الإصدار 43 دقيقة قبل الساعة 21:00UTC
ريح 9 عقدة من الشرق
درجة الحرارة 29°درجة مئوية
الرطوبة 70%
ضغط 1012 hPa
الرؤية 10 كم أو أكثر
غيوم مفككة على ارتفاع 2700 قدم

METAR: MZBZ 232100Z 09009KT 9999 BKN027 29/23 A2990 Q1012 NOSIG

زمن: 15:43 (21:43 UTC)

توقعات

تاريخ ووقت الإصدار 6ساعات و 43 دقيقة قبل الساعة 15:00UTC
التوقعات صالحة من23 الساعة 18 UTC إلى 24 الساعة 18 UTC
ريح 10 عقدة من الشرق
الرؤية 10 كم أو أكثر
غيوم متفرقة على ارتفاع 2400 قدم

TAF: MZBZ 231500Z 2318/2418 10010KT 9999 SCT024

أرصاد الطقس والتوقعات من أكثر من 4000 مطار (تقارير الطقس للمطار METAR والتنبؤ بالطقس بالمطارTAF).

المحطات المتاحة هي النقط الصفراء والحمراء على الخريطة.

حرك المؤشر فوق النقطة لمعرفة اسم المحطة.

ثم انقر لمعرفة أرصاد وتوقعات الطقس.

لتغيير الخارطة: اضغط على الأزرار الخضراء مع رمز الصليب الأسود للتكبير. على الزر الأخضر مع شرطة للتصغير، أو على الأسهم الخضراء للخرائط المجاورة.


METAR-TAF: